Hillsdale, IL (61257)

9:54 PM CDT on April 20, 2015 (GMT -0500)
Lakeside Court | Change Station
CLOSE
Current Station
Personal Weather Station
Location: Port Byron, IL
Elevation: 725 ft
Nearby Weather Stations

Elev 725 ft 41.62 °N, 90.31 °W | Updated 3 minutes ago

Partly Cloudy
Partly Cloudy
42.3 °F
Feels Like 42 °F
N
-
Wind Variable Wind from North

Today
High -- | Low -- °F
--% Chance of Precip.
Yesterday
High -- | Low -- °F
Precip. -- in
6:13 AM 7:46 PM
Waxing Crescent, 7% visible
Pressure 29.69 in
Visibility 10.0 miles
Clouds Overcast 9000 ft
Windchill 42 °F
Dew Point 35 °F
Humidity 74%
Rainfall -999.00 in
Snow Depth Not available.
UV 0 out of 12
Pollen 10.60 out of 12
Air Quality Not available.
Flu Activity Regional
METAR KCWI 210235Z AUTO 28007KT 10SM OVC090 04/01 A2969 RMK AO1

More Conditions Fewer Conditions

Pressure 29.69 in
Visibility 10.0 miles
Clouds Overcast 9000 ft
Windchill 42 °F
Dew Point 35 °F
Humidity 74%
Rainfall -999.00 in
Snow Depth Not available.
UV 0 out of 12
Pollen 10.60 out of 12
Air Quality Not available.
Flu Activity Regional
METAR KCWI 210235Z AUTO 28007KT 10SM OVC090 04/01 A2969 RMK AO1

More Conditions Fewer Conditions

10-Day Weather Forecast

Almanac

Astronomy

Apr. 20, 2015 Rise Set
Actual Time 6:13 AM CDT 7:46 PM CDT
Civil Twilight 5:44 AM CDT 8:15 PM CDT
Nautical Twilight 5:09 AM CDT 8:51 PM CDT
Astronomical Twilight 4:31 AM CDT 9:28 PM CDT
Moon 7:41 AM CDT (4/20) 10:09 PM CDT (4/20)
Length of Visible Light 14h 31m
Length of Day
13h 33m
Tomorrow will be 2m 36s longer.
Waxing Crescent, 7% of the Moon is Illuminated
Today
Waxing Crescent
Apr 25
First Quarter
May 3
Full
May 11
Last Quarter
May 18
New

Today's Extremes

State Highs State Lows

Community

WunderPhotos

Upload Photos

1,815,283 photos uploaded!

Nearby

Snow Depth

Station Depth Elevation
No new snow has been reported.

Earthquake Activity

City Distance Mag. Time & Date
No recent earthquake activity has been reported nearby.
Minimum magnitude displayed is 2.5.

Coastal Water Temperatures

Place Temperature
No Stations Reporting

Nearby Weather Stations